ADDS METAR Data INFO
IDs: Format: Raw Decoded Include TAF

Data at: 1051 UTC 24 Nov 2017

KCVB 241035Z AUTO 30003KT 10SM CLR 05/01 A3004 RMK AO2 T00470005
KCVB 241015Z AUTO 30004KT 10SM CLR 05/00 A3004 RMK AO2 T00480004
KCVB 240955Z AUTO 30005KT 10SM CLR 05/00 A3005 RMK AO2 T00500004
KCVB 240935Z AUTO 32004KT 10SM CLR 05/00 A3005 RMK AO2 T00510001
KCVB 240915Z AUTO 30004KT 10SM CLR 06/00 A3005 RMK AO2 T00550004
KCVB 240855Z AUTO 32004KT 10SM CLR 06/00 A3006 RMK AO2 T00550002
KCVB 240835Z AUTO 30006KT 10SM CLR 06/01 A3006 RMK AO2 T00550005
KCVB 240815Z AUTO 30005KT 10SM CLR 06/00 A3007 RMK AO2 T00550000
KCVB 240755Z AUTO 30005KT 10SM CLR 06/00 A3007 RMK AO2 T00570000
KCVB 240735Z AUTO 30004KT 10SM CLR 06/00 A3007 RMK AO2 T00581001
KCVB 240715Z AUTO 31006KT 10SM CLR 06/00 A3007 RMK AO2 T00581001
KCVB 240655Z AUTO 30005KT 10SM CLR 06/00 A3008 RMK AO2 T00591001
KCVB 240635Z AUTO 33004KT 10SM CLR 06/00 A3009 RMK AO2 T00601002
KCVB 240615Z AUTO 31005KT 10SM CLR 06/00 A3009 RMK AO2 T00611002
KCVB 240555Z AUTO 31004KT 10SM CLR 06/00 A3009 RMK AO2 T00631004 10167 20063 402300017
KCVB 240535Z AUTO 31005KT 10SM CLR 07/00 A3010 RMK AO2 T00651004
KCVB 240515Z AUTO 32005KT 10SM CLR 07/00 A3010 RMK AO2 T00651001
KCVB 240455Z AUTO 32004KT 10SM CLR 07/00 A3011 RMK AO2 T00661004
KCVB 240435Z AUTO 32004KT 10SM CLR 07/M01 A3010 RMK AO2 T00691009
KCVB 240415Z AUTO 00000KT 10SM CLR 08/M01 A3010 RMK AO2 T00751008
KCVB 240355Z AUTO 33003KT 10SM CLR 07/M01 A3010 RMK AO2 T00741013
KCVB 240335Z AUTO 00000KT 10SM CLR 08/00 A3010 RMK AO2 T00840003
KCVB 240315Z AUTO 00000KT 10SM CLR 09/00 A3010 RMK AO2 T00910004
KCVB 240255Z AUTO 00000KT 10SM CLR 09/01 A3011 RMK AO2 T00940006
KCVB 240235Z AUTO 00000KT 10SM CLR 10/00 A3012 RMK AO2 T01040000
KCVB 240215Z AUTO 00000KT 10SM CLR 11/00 A3011 RMK AO2 T01050000
KCVB 240155Z AUTO 00000KT 10SM CLR 10/M01 A3010 RMK AO2 T01031013
KCVB 240135Z AUTO 00000KT 10SM CLR 12/00 A3009 RMK AO2 T01181002
KCVB 240115Z AUTO 00000KT 10SM CLR 13/00 A3009 RMK AO2 T01301001
KCVB 240055Z AUTO 00000KT 10SM CLR 15/M01 A3008 RMK AO2 T01451012
KCVB 240035Z AUTO 21004KT 10SM CLR 15/M01 A3008 RMK AO2 T01491010
KCVB 240015Z AUTO 20005KT 10SM CLR 16/M01 A3008 RMK AO2 T01551015
KCVB 232355Z AUTO 20005KT 10SM CLR 17/M01 A3008 RMK AO2 T01691015 10230 20169
KCVB 232335Z AUTO 21003KT 10SM CLR 19/M02 A3008 RMK AO2 T01891025
KCVB 232315Z AUTO 21003KT 10SM CLR 20/M03 A3008 RMK AO2 T02021029
KCVB 232255Z AUTO 00000KT 10SM CLR 22/M03 A3008 RMK AO2 T02151029
KCVB 232235Z AUTO 21004KT 10SM CLR 22/M04 A3008 RMK AO2 T02201038
KCVB 232215Z AUTO 24005KT 10SM CLR 22/M04 A3008 RMK AO2 T02221037
KCVB 232155Z AUTO 22005KT 10SM CLR 23/M04 A3008 RMK AO2 T02261042
KCVB 232135Z AUTO 21004KT 10SM CLR 23/M04 A3009 RMK AO2 T02261045
KCVB 232115Z AUTO 29004KT 10SM CLR 23/M04 A3009 RMK AO2 T02261045
KCVB 232055Z AUTO 28003KT 10SM CLR 23/M05 A3010 RMK AO2 T02281046
KCVB 232035Z AUTO 23004KT 10SM CLR 22/M05 A3011 RMK AO2 T02231049
KCVB 232015Z AUTO 00000KT 10SM CLR 22/M05 A3012 RMK AO2 T02231048
KCVB 231955Z AUTO 00000KT 10SM CLR 22/M05 A3012 RMK AO2 T02191050
KCVB 231935Z AUTO 23003KT 10SM CLR 22/M05 A3013 RMK AO2 T02161051
KCVB 231915Z AUTO 29004KT 10SM CLR 21/M05 A3015 RMK AO2 T02121053
KCVB 231855Z AUTO 28004KT 10SM CLR 21/M05 A3017 RMK AO2 T02101054
KCVB 231835Z AUTO 27005KT 10SM CLR 21/M05 A3018 RMK AO2 T02071055
KCVB 231815Z AUTO 27005KT 10SM CLR 20/M06 A3019 RMK AO2 T01981059
KCVB 231755Z AUTO 00000KT 10SM CLR 20/M06 A3020 RMK AO2 T01961059 10196 20017
KCVB 231735Z AUTO 00000KT 10SM CLR 19/M05 A3022 RMK AO2 T01881055
KCVB 231715Z AUTO 00000KT 10SM CLR 18/M05 A3023 RMK AO2 T01801049
KCVB 231655Z AUTO 00000KT 10SM CLR 17/M05 A3024 RMK AO2 T01681047
KCVB 231635Z AUTO 00000KT 10SM CLR 16/M04 A3025 RMK AO2 T01621045
KCVB 231615Z AUTO 00000KT 10SM CLR 15/M05 A3026 RMK AO2 T01461049
KCVB 231555Z AUTO 00000KT 10SM CLR 14/M05 A3026 RMK AO2 T01361050
KCVB 231535Z AUTO 32003KT 10SM CLR 11/M03 A3026 RMK AO2 T01111028
KCVB 231515Z AUTO 30004KT 10SM CLR 10/M02 A3026 RMK AO2 T01011016
KCVB 231455Z AUTO 31005KT 10SM CLR 08/M01 A3026 RMK AO2 T00811009
KCVB 231435Z AUTO 31006KT 10SM CLR 07/M01 A3025 RMK AO2 T00681015
KCVB 231415Z AUTO 31005KT 10SM CLR 05/M02 A3025 RMK AO2 T00531016
KCVB 231355Z AUTO 31005KT 10SM CLR 04/M02 A3025 RMK AO2 T00431017
KCVB 231335Z AUTO 30006KT 10SM CLR 03/M02 A3025 RMK AO2 T00321021
KCVB 231315Z AUTO 30004KT 10SM CLR 02/M03 A3024 RMK AO2 T00181030
KCVB 231255Z AUTO 30004KT 10SM CLR 02/M03 A3024 RMK AO2 T00201031
KCVB 231235Z AUTO 29003KT 10SM CLR 02/M03 A3024 RMK AO2 T00231030
KCVB 231215Z AUTO 30004KT 10SM CLR 03/M03 A3024 RMK AO2 T00251030
KCVB 231155Z AUTO 30004KT 10SM CLR 02/M03 A3024 RMK AO2 T00241031 10042 20021
KCVB 231135Z AUTO 31004KT 10SM CLR 03/M03 A3024 RMK AO2 T00251030
KCVB 231115Z AUTO 31005KT 10SM CLR 02/M03 A3024 RMK AO2 T00211029
KCVB 231055Z AUTO 30003KT 10SM CLR 02/M03 A3023 RMK AO2 T00231026
KCVB 231035Z AUTO 30005KT 10SM CLR 03/M02 A3023 RMK AO2 T00261021
KCVB 231015Z AUTO 33005KT 10SM CLR 03/M02 A3023 RMK AO2 T00311024
KCVB 230955Z AUTO 31007KT 10SM CLR 03/M02 A3024 RMK AO2 T00311020
KCVB 230935Z AUTO 31005KT 10SM CLR 03/M02 A3024 RMK AO2 T00261023
KCVB 230915Z AUTO 31005KT 10SM CLR 03/M02 A3024 RMK AO2 T00271025
KCVB 230855Z AUTO 32006KT 10SM CLR 03/M02 A3025 RMK AO2 T00341025
KCVB 230835Z AUTO 30005KT 10SM CLR 03/M03 A3025 RMK AO2 T00321030
KCVB 230815Z AUTO 32003KT 10SM CLR 04/M03 A3025 RMK AO2 T00401027
KCVB 230755Z AUTO 30005KT 10SM CLR 04/M03 A3025 RMK AO2 T00351030
KCVB 230735Z AUTO 30004KT 10SM CLR 04/M03 A3026 RMK AO2 T00371032
KCVB 230715Z AUTO 32005KT 10SM CLR 04/M03 A3026 RMK AO2 T00401029
KCVB 230655Z AUTO 31006KT 10SM CLR 04/M02 A3026 RMK AO2 T00371025
KCVB 230635Z AUTO 30005KT 10SM CLR 04/M03 A3027 RMK AO2 T00361030
KCVB 230615Z AUTO 30005KT 10SM CLR 04/M02 A3027 RMK AO2 T00371025
KCVB 230555Z AUTO 30004KT 10SM CLR 04/M03 A3027 RMK AO2 T00401026 10159 20039 402070039
KCVB 230535Z AUTO 29003KT 10SM CLR 04/M03 A3028 RMK AO2 T00421027
KCVB 230515Z AUTO 31004KT 10SM CLR 05/M02 A3029 RMK AO2 T00451023
KCVB 230455Z AUTO 30005KT 10SM CLR 05/M03 A3029 RMK AO2 T00511027
KCVB 230435Z AUTO 32004KT 10SM CLR 06/M02 A3029 RMK AO2 T00591024
KCVB 230415Z AUTO 32004KT 10SM CLR 07/M03 A3030 RMK AO2 T00651026
KCVB 230355Z AUTO 32003KT 10SM CLR 07/M03 A3030 RMK AO2 T00711032
KCVB 230335Z AUTO 00000KT 10SM CLR 08/M04 A3030 RMK AO2 T00761037
KCVB 230315Z AUTO 36005KT 10SM CLR 10/M05 A3030 RMK AO2 T00951046
KCVB 230255Z AUTO 30004KT 10SM CLR 09/M04 A3030 RMK AO2 T00851039
KCVB 230235Z AUTO 00000KT 10SM CLR 09/M03 A3029 RMK AO2 T00861035
KCVB 230215Z AUTO 36004KT 10SM CLR 10/M04 A3029 RMK AO2 T01001044
KCVB 230155Z AUTO 34005KT 10SM CLR 10/M03 A3029 RMK AO2 T00971032
KCVB 230135Z AUTO 00000KT 10SM CLR 12/M05 A3029 RMK AO2 T01151047
KCVB 230115Z AUTO 02003KT 10SM CLR 12/M04 A3028 RMK AO2 T01171040
KCVB 230055Z AUTO 02003KT 10SM CLR 13/M03 A3028 RMK AO2 T01331032
KCVB 230035Z AUTO 03003KT 10SM CLR 15/M03 A3027 RMK AO2 T01451031
KCVB 230015Z AUTO 03005KT 10SM CLR 15/M03 A3026 RMK AO2 T01511033
KCVB 222355Z AUTO 36006KT 10SM CLR 16/M03 A3027 RMK AO2 T01611030 10207 20161
KCVB 222335Z AUTO 35006KT 10SM CLR 17/M03 A3027 RMK AO2 T01721028
KCVB 222315Z AUTO 36005KT 10SM CLR 19/M03 A3026 RMK AO2 T01851027
KCVB 222255Z AUTO 34011KT 10SM CLR 19/M03 A3026 RMK AO2 T01921027